Time;durP1;ratioP1;P1;durP2;ratioP2;P2;SDS_P1;SDS_P2;PMS_P1;PMS_P2;Temp;Humidity;BMP_temperature;BMP_pressure;BME280_temperature;BME280_humidity;BME280_pressure;Samples;Min_cycle;Max_cycle;Signal;HPM_P1;HPM_P2
2022/01/27 00:00:43;;;;;;;48.80;28.90;;;;;;;-3.57;71.44;100524.87;1708972;82;21075;-77
2022/01/27 00:03:25;;;;;;;63.50;35.60;;;;;;;-3.58;71.44;100526.16;1706712;82;20952;-78
2022/01/27 00:05:54;;;;;;;66.50;36.48;;;;;;;-3.60;71.45;100522.77;1706375;82;21762;-78
2022/01/27 00:08:22;;;;;;;76.77;40.78;;;;;;;-3.62;71.51;100530.54;1706819;83;20988;-78
2022/01/27 00:10:52;;;;;;;85.75;43.75;;;;;;;-3.61;71.54;100533.53;1706880;83;21050;-74
2022/01/27 00:13:23;;;;;;;77.47;41.23;;;;;;;-3.60;71.57;100530.51;1705165;83;21397;-76
2022/01/27 00:15:57;;;;;;;76.33;39.88;;;;;;;-3.62;71.66;100526.67;1705642;82;20937;-76
2022/01/27 00:18:19;;;;;;;65.65;37.13;;;;;;;-3.61;71.71;100527.52;1705615;83;21975;-76
2022/01/27 00:20:47;;;;;;;82.82;42.55;;;;;;;-3.64;71.65;100528.44;1704493;83;21029;-76
2022/01/27 00:23:14;;;;;;;85.80;43.80;;;;;;;-3.68;71.67;100520.31;1706817;83;21433;-77
2022/01/27 00:25:40;;;;;;;92.90;46.42;;;;;;;-3.67;71.72;100532.34;1707451;82;21020;-76
2022/01/27 00:28:08;;;;;;;92.78;45.20;;;;;;;-3.66;71.75;100530.20;1678026;84;20989;-77
2022/01/27 00:30:37;;;;;;;84.97;45.03;;;;;;;-3.66;71.79;100524.19;1677062;85;21695;-77
2022/01/27 00:33:04;;;;;;;81.30;44.00;;;;;;;-3.65;71.82;100522.02;1693866;83;21110;-76
2022/01/27 00:35:32;;;;;;;78.90;40.73;;;;;;;-3.65;71.84;100521.57;1702204;83;20944;-78
2022/01/27 00:38:00;;;;;;;73.15;37.98;;;;;;;-3.64;71.87;100518.55;1695633;81;20968;-77
2022/01/27 00:40:27;;;;;;;70.03;38.83;;;;;;;-3.66;71.82;100517.73;1666214;83;21460;-77
2022/01/27 00:42:54;;;;;;;79.30;41.65;;;;;;;-3.67;71.83;100515.56;1689628;84;22467;-76
2022/01/27 00:45:22;;;;;;;79.75;42.25;;;;;;;-3.69;71.82;100509.59;1674895;83;20937;-77
2022/01/27 00:47:49;;;;;;;80.12;43.02;;;;;;;-3.70;71.90;100508.33;1690292;83;21038;-77
2022/01/27 00:50:18;;;;;;;84.25;46.30;;;;;;;-3.70;71.93;100509.18;1684707;83;20987;-77
2022/01/27 00:52:51;;;;;;;80.87;42.38;;;;;;;-3.70;71.96;100509.18;1690366;83;21034;-76
2022/01/27 00:55:15;;;;;;;88.30;44.40;;;;;;;-3.70;71.93;100513.49;1686965;83;22299;-76
2022/01/27 01:00:36;;;;;;;81.82;41.88;;;;;;;-3.72;71.94;100507.52;1692029;83;21490;-76
2022/01/27 01:03:07;;;;;;;83.45;41.18;;;;;;;-3.74;71.99;100510.12;1671967;83;21089;-76
2022/01/27 01:15:36;;;;;;;98.45;49.08;;;;;;;-3.84;72.08;100494.41;1669751;84;20978;-76
2022/01/27 01:18:23;;;;;;;106.65;51.42;;;;;;;-3.86;72.11;100489.28;1670167;84;21066;-76
2022/01/27 01:20:52;;;;;;;105.80;47.93;;;;;;;-3.83;72.18;100484.49;1659175;84;21879;-76
2022/01/27 01:36:37;;;;;;;75.62;39.78;;;;;;;-3.82;72.33;100492.20;1625095;88;21545;-76
2022/01/27 01:39:05;;;;;;;84.40;44.20;;;;;;;-3.82;72.25;100486.19;1614183;87;21081;-76
2022/01/27 01:41:32;;;;;;;94.07;47.53;;;;;;;-3.86;72.19;100490.98;1604471;87;20986;-76
2022/01/27 01:43:59;;;;;;;86.78;45.98;;;;;;;-3.88;72.19;100483.71;1641090;86;20963;-76
2022/01/27 01:46:25;;;;;;;85.47;44.20;;;;;;;-3.87;72.22;100485.41;1659621;84;21782;-76
2022/01/27 01:48:52;;;;;;;96.08;48.55;;;;;;;-3.87;72.27;100475.09;1666166;84;20970;-76
2022/01/27 01:51:24;;;;;;;89.20;46.33;;;;;;;-3.87;72.27;100473.36;1620405;86;21062;-76
2022/01/27 01:53:51;;;;;;;100.82;49.83;;;;;;;-3.86;72.34;100475.50;1616759;87;21041;-76
2022/01/27 01:56:18;;;;;;;81.53;42.80;;;;;;;-3.87;72.40;100473.80;1663741;84;21053;-76
2022/01/27 01:58:44;;;;;;;74.58;40.98;;;;;;;-3.86;72.45;100474.20;1658656;85;22256;-76
2022/01/27 02:01:11;;;;;;;77.32;40.70;;;;;;;-3.86;72.39;100467.75;1642893;86;20978;-76
2022/01/27 02:03:37;;;;;;;78.07;42.10;;;;;;;-3.87;72.34;100468.64;1657166;85;21041;-76
2022/01/27 02:06:04;;;;;;;85.45;44.85;;;;;;;-3.89;72.28;100463.52;1642983;85;21071;-76
2022/01/27 02:08:44;;;;;;;81.78;43.55;;;;;;;-3.90;72.29;100468.70;1632824;85;21497;-76
2022/01/27 02:19:19;;;;;;;77.78;40.98;;;;;;;-3.93;72.29;100485.10;1612999;87;21251;-76
2022/01/27 02:21:54;;;;;;;79.92;42.43;;;;;;;-3.92;72.35;100484.22;1609139;87;21033;-76
2022/01/27 02:24:23;;;;;;;78.33;41.50;;;;;;;-3.93;72.29;100492.00;1597113;88;21858;-76
2022/01/27 02:26:49;;;;;;;82.53;43.20;;;;;;;-3.92;72.20;100491.11;1608477;87;21556;-75
2022/01/27 02:29:17;;;;;;;84.07;46.90;;;;;;;-3.94;72.15;100487.28;1631105;86;21067;-76
2022/01/27 02:31:45;;;;;;;87.57;46.90;;;;;;;-3.94;72.15;100486.43;1618675;86;21017;-76
2022/01/27 02:34:12;;;;;;;86.30;46.28;;;;;;;-3.94;72.18;100481.27;1588421;87;20977;-77
2022/01/27 02:36:39;;;;;;;110.30;51.18;;;;;;;-3.95;72.16;100484.29;1595239;86;21854;-76
2022/01/27 02:39:07;;;;;;;99.03;46.58;;;;;;;-3.95;72.12;100489.89;1666161;83;21070;-76
2022/01/27 02:41:53;;;;;;;90.65;46.00;;;;;;;-3.99;72.08;100484.36;1626036;86;20983;-76
2022/01/27 02:44:47;;;;;;;93.22;46.63;;;;;;;-4.04;72.05;100490.46;1625586;86;20998;-76
2022/01/27 02:47:14;;;;;;;;;;;;;;;-4.09;72.12;100479.80;1673410;83;21018;-77
2022/01/27 02:49:40;;;;;;;89.62;47.88;;;;;;;-4.09;72.27;100483.23;1668863;83;22210;-76
2022/01/27 02:52:07;;;;;;;80.92;41.35;;;;;;;-4.08;72.37;100485.37;1654319;84;21016;-76
2022/01/27 02:54:34;;;;;;;85.20;43.48;;;;;;;-4.08;72.30;100484.92;1672378;83;21051;-76
2022/01/27 02:57:00;;;;;;;83.12;42.60;;;;;;;-4.09;72.31;100474.20;1686666;83;20983;-77
2022/01/27 02:59:27;;;;;;;77.75;41.45;;;;;;;-4.08;72.32;100477.63;1685255;83;21047;-76
2022/01/27 03:01:54;;;;;;;77.08;41.05;;;;;;;-4.10;72.31;100475.09;1683785;84;21783;-77
2022/01/27 03:04:21;;;;;;;84.90;42.85;;;;;;;-4.11;72.31;100473.83;1656665;84;21245;-77
2022/01/27 03:06:47;;;;;;;94.10;48.65;;;;;;;-4.10;72.31;100472.50;1656867;84;21015;-77
2022/01/27 03:09:14;;;;;;;106.60;54.50;;;;;;;-4.10;72.35;100471.22;1661976;83;22210;-76
2022/01/27 03:11:47;;;;;;;112.83;57.00;;;;;;;-4.09;72.38;100470.77;1666993;84;20979;-76
2022/01/27 03:14:16;;;;;;;93.67;51.95;;;;;;;-4.09;72.39;100471.63;1660144;83;21880;-77
2022/01/27 03:16:43;;;;;;;92.45;49.85;;;;;;;-4.10;72.38;100467.34;1640203;85;21042;-76
2022/01/27 03:19:09;;;;;;;90.55;48.68;;;;;;;-4.09;72.40;100469.48;1662829;84;20986;-76
2022/01/27 03:21:36;;;;;;;81.57;45.63;;;;;;;-4.09;72.40;100466.91;1647059;85;21025;-76
2022/01/27 03:24:03;;;;;;;84.40;45.75;;;;;;;-4.09;72.42;100457.87;1633040;86;21011;-77
2022/01/27 03:26:30;;;;;;;75.70;39.40;;;;;;;-4.09;72.40;100458.72;1641940;85;22246;-76
2022/01/27 03:28:58;;;;;;;66.40;38.40;;;;;;;-4.10;72.38;100454.45;1664881;84;21058;-76
2022/01/27 03:31:25;;;;;;;73.57;38.98;;;;;;;-4.08;72.37;100454.41;1609305;87;21046;-76
2022/01/27 03:33:51;;;;;;;81.30;42.50;;;;;;;-4.07;72.42;100454.82;1604169;88;20978;-77
2022/01/27 03:36:18;;;;;;;87.27;44.93;;;;;;;-4.05;72.45;100451.36;1603802;88;21046;-76
2022/01/27 03:38:44;;;;;;;79.27;41.30;;;;;;;-4.03;72.44;100444.88;1607265;88;22623;-76
2022/01/27 03:41:12;;;;;;;65.95;36.05;;;;;;;-4.04;72.40;100445.32;1606523;87;20986;-76
2022/01/27 03:43:39;;;;;;;59.20;33.45;;;;;;;-4.03;72.38;100448.75;1607963;86;21070;-76
2022/01/27 03:46:06;;;;;;;68.50;36.80;;;;;;;-4.02;72.39;100442.70;1631829;86;21034;-76
2022/01/27 03:48:32;;;;;;;71.25;37.65;;;;;;;-4.01;72.37;100448.27;1683360;85;20979;-76
2022/01/27 03:50:59;;;;;;;72.60;39.20;;;;;;;-4.00;72.33;100452.99;1679856;84;21833;-77
2022/01/27 03:53:25;;;;;;;70.45;38.45;;;;;;;-4.02;72.29;100437.98;1628504;87;21506;-76
2022/01/27 03:55:52;;;;;;;69.75;35.95;;;;;;;-4.06;72.24;100441.05;1627730;86;20922;-77
2022/01/27 03:58:19;;;;;;;60.28;33.40;;;;;;;-4.08;72.23;100441.52;1629300;86;21010;-76
2022/01/27 04:00:47;;;;;;;61.48;37.28;;;;;;;-4.08;72.22;100450.55;1625488;86;21081;-77
2022/01/27 04:03:15;;;;;;;63.23;35.13;;;;;;;-4.11;72.19;100442.88;1622505;85;21825;-77
2022/01/27 04:05:48;;;;;;;54.00;31.42;;;;;;;-4.12;72.22;100456.21;1638371;85;21445;-77
2022/01/27 04:08:11;;;;;;;47.25;27.52;;;;;;;-4.10;72.25;100463.92;1640865;86;20997;-77
2022/01/27 04:10:39;;;;;;;52.08;29.77;;;;;;;-4.10;72.22;100456.17;1596077;87;21050;-77
2022/01/27 04:13:07;;;;;;;55.88;30.72;;;;;;;-4.12;72.17;100454.92;1636758;85;21097;-77
2022/01/27 04:15:35;;;;;;;47.05;27.27;;;;;;;-4.14;72.22;100451.97;1613581;87;22600;-76
2022/01/27 04:18:01;;;;;;;45.90;26.75;;;;;;;-4.15;72.23;100448.95;1616091;87;20955;-77
2022/01/27 04:20:27;;;;;;;47.83;27.10;;;;;;;-4.16;72.21;100452.41;1627838;86;21034;-76
2022/01/27 04:22:54;;;;;;;48.70;28.17;;;;;;;-4.17;72.24;100455.42;1645617;85;21011;-76
2022/01/27 04:25:21;;;;;;;49.55;29.77;;;;;;;-4.17;72.27;100458.01;1638360;86;20995;-76
2022/01/27 04:27:52;;;;;;;50.95;28.90;;;;;;;-4.15;72.31;100458.86;1656988;84;22838;-76
2022/01/27 04:30:18;;;;;;;48.95;26.25;;;;;;;-4.13;72.30;100451.94;1634080;85;21054;-77
2022/01/27 04:32:49;;;;;;;47.08;25.90;;;;;;;-4.13;72.29;100447.22;1651953;84;21520;-77
2022/01/27 04:35:17;;;;;;;44.90;24.92;;;;;;;-4.13;72.28;100445.93;1662742;85;21529;-77
2022/01/27 04:37:54;;;;;;;35.43;20.52;;;;;;;-4.15;72.26;100444.67;1639903;86;20982;-76
2022/01/27 04:40:15;;;;;;;40.40;24.20;;;;;;;-4.17;72.22;100439.10;1638542;85;21453;-76
2022/01/27 04:42:56;;;;;;;40.20;22.90;;;;;;;-4.23;72.23;100447.82;1659026;85;20990;-76
2022/01/27 04:45:15;;;;;;;42.70;25.10;;;;;;;-4.27;72.29;100455.18;1651857;84;21138;-76
2022/01/27 04:47:46;;;;;;;38.63;22.87;;;;;;;-4.28;72.38;100448.77;1672976;83;20970;-76
2022/01/27 04:50:11;;;;;;;38.75;22.42;;;;;;;-4.32;72.39;100446.70;1653952;84;20971;-76
2022/01/27 04:52:42;;;;;;;38.73;22.60;;;;;;;-4.35;72.44;100460.91;1658394;84;21754;-76
2022/01/27 04:55:10;;;;;;;37.13;20.85;;;;;;;-4.37;72.49;100461.38;1649089;86;21102;-76
2022/01/27 04:57:37;;;;;;;35.40;20.55;;;;;;;-4.41;72.58;100459.30;1650461;84;21459;-76
2022/01/27 05:00:07;;;;;;;39.67;23.15;;;;;;;-4.41;72.62;100455.44;1655928;85;20991;-75
2022/01/27 05:02:54;;;;;;;41.98;23.87;;;;;;;-4.43;72.63;100455.91;1647748;84;21029;-76
2022/01/27 05:05:14;;;;;;;69.30;40.63;;;;;;;-4.44;72.67;100458.08;1637058;84;22231;-81
2022/01/27 05:07:41;;;;;;;50.43;28.45;;;;;;;-4.45;72.73;100460.65;1668783;85;21029;-81
2022/01/27 05:10:12;;;;;;;44.67;25.15;;;;;;;-4.46;72.77;100466.69;1670787;84;21584;-82
2022/01/27 05:12:48;;;;;;;39.67;22.58;;;;;;;-4.47;72.81;100467.13;1670987;83;21101;-78
2022/01/27 05:15:12;;;;;;;42.08;22.87;;;;;;;-4.45;72.82;100473.10;1685225;84;20994;-77
2022/01/27 05:17:38;;;;;;;44.88;24.43;;;;;;;-4.47;72.82;100467.13;1660122;83;22180;-80
2022/01/27 05:20:06;;;;;;;59.95;36.77;;;;;;;-4.50;72.84;100469.77;1643787;85;21052;-77
2022/01/27 05:22:32;;;;;;;61.05;34.48;;;;;;;-4.52;72.85;100462.94;1665725;83;20986;-75
2022/01/27 05:24:59;;;;;;;55.17;31.52;;;;;;;-4.52;72.95;100464.23;1653332;84;21440;-79
2022/01/27 05:27:25;;;;;;;46.35;26.42;;;;;;;-4.52;73.01;100461.66;1628763;84;21682;-82
2022/01/27 05:29:52;;;;;;;104.97;57.75;;;;;;;-4.51;73.01;100467.22;1642383;84;21734;-80
2022/01/27 05:32:20;;;;;;;92.12;50.38;;;;;;;-4.54;73.01;100468.09;1664329;84;21026;-77
2022/01/27 05:34:46;;;;;;;75.10;43.08;;;;;;;-4.55;73.09;100478.44;1664890;83;21049;-80
2022/01/27 05:37:13;;;;;;;131.65;76.90;;;;;;;-4.56;73.13;100475.01;1663897;84;21022;-76
2022/01/27 05:39:40;;;;;;;77.55;45.23;;;;;;;-4.55;73.16;100487.02;1671744;84;21054;-74
2022/01/27 05:42:06;;;;;;;45.38;25.90;;;;;;;-4.54;73.21;100477.55;1667328;85;21790;-74
2022/01/27 05:44:33;;;;;;;43.55;25.12;;;;;;;-4.52;73.21;100484.84;1656329;85;20975;-76
2022/01/27 05:46:59;;;;;;;44.88;25.25;;;;;;;-4.51;73.19;100488.69;1670985;83;21527;-84
2022/01/27 05:49:26;;;;;;;51.45;28.65;;;;;;;-4.51;73.21;100491.70;1675289;83;21548;-85
2022/01/27 05:51:54;;;;;;;66.85;39.08;;;;;;;-4.51;73.23;100491.27;1667858;84;21375;-85
2022/01/27 05:54:21;;;;;;;43.45;25.62;;;;;;;-4.50;73.24;100495.54;1654764;85;22377;-82
2022/01/27 05:56:48;;;;;;;47.03;27.20;;;;;;;-4.49;73.24;100502.39;1657848;84;21003;-84
2022/01/27 05:59:14;;;;;;;47.10;26.90;;;;;;;-4.50;73.30;100499.84;1612648;86;21225;-83
2022/01/27 06:01:41;;;;;;;51.45;30.97;;;;;;;-4.46;73.35;100497.63;1619348;86;20991;-84
2022/01/27 06:04:07;;;;;;;64.40;36.00;;;;;;;-4.45;73.33;100492.44;1665810;83;21025;-84
2022/01/27 06:06:34;;;;;;;109.60;64.55;;;;;;;-4.42;73.36;100486.41;1660003;84;21884;-83
2022/01/27 06:09:01;;;;;;;115.00;63.08;;;;;;;-4.42;73.36;100483.38;1657887;85;21003;-85
2022/01/27 06:11:27;;;;;;;106.58;59.77;;;;;;;-4.39;73.38;100478.61;1658162;85;21444;-84
2022/01/27 06:13:54;;;;;;;87.20;49.58;;;;;;;-4.38;73.42;100477.73;1684221;84;21547;-84
2022/01/27 06:16:20;;;;;;;75.40;43.40;;;;;;;-4.35;73.41;100466.06;1625479;86;21366;-84
2022/01/27 06:18:48;;;;;;;105.63;60.03;;;;;;;-4.32;73.40;100472.48;1617629;86;39762;-85
2022/01/27 06:21:17;;;;;;;130.32;70.12;;;;;;;-4.30;73.38;100477.16;1670781;83;20981;-75
2022/01/27 06:23:43;;;;;;;121.28;64.85;;;;;;;-4.27;73.38;100469.80;1653384;84;21034;-76
2022/01/27 06:26:09;;;;;;;100.78;58.00;;;;;;;-4.26;73.39;100455.59;1670787;83;21010;-74
2022/01/27 06:28:36;;;;;;;69.77;40.25;;;;;;;-4.23;73.34;100467.16;1628547;86;21041;-72
2022/01/27 06:31:03;;;;;;;53.25;32.48;;;;;;;-4.20;73.29;100464.52;1638832;87;21868;-74
2022/01/27 06:33:30;;;;;;;52.98;31.25;;;;;;;-4.19;73.25;100461.06;1679330;83;21435;-73
2022/01/27 06:35:57;;;;;;;45.35;27.40;;;;;;;-4.18;73.21;100460.63;1643282;85;21034;-73
2022/01/27 06:38:24;;;;;;;43.58;26.30;;;;;;;-4.16;73.13;100461.44;1646584;84;20978;-74
2022/01/27 06:40:50;;;;;;;55.08;31.87;;;;;;;-4.17;73.06;100451.56;1677357;84;21112;-73
2022/01/27 06:43:17;;;;;;;47.48;28.35;;;;;;;-4.16;73.03;100451.97;1634097;84;21841;-74
2022/01/27 06:45:43;;;;;;;43.73;25.85;;;;;;;-4.15;72.93;100452.81;1664800;85;21444;-74
2022/01/27 06:48:10;;;;;;;44.95;26.42;;;;;;;-4.17;72.84;100455.88;1671274;84;21118;-74
2022/01/27 06:50:38;;;;;;;36.60;23.32;;;;;;;-4.22;72.80;100452.54;1667064;84;21002;-73
2022/01/27 06:53:04;;;;;;;49.05;28.65;;;;;;;-4.24;72.82;100457.73;1644617;85;21003;-74
2022/01/27 06:55:32;;;;;;;49.70;26.68;;;;;;;-4.24;72.75;100456.44;1646680;85;21801;-73
2022/01/27 06:57:58;;;;;;;39.83;23.07;;;;;;;-4.24;72.71;100455.15;1650424;84;21456;-73
2022/01/27 07:00:24;;;;;;;46.98;26.60;;;;;;;-4.23;72.70;100460.72;1604433;87;21598;-73
2022/01/27 07:02:51;;;;;;;50.63;30.57;;;;;;;-4.23;72.61;100467.16;1612086;85;21604;-73
2022/01/27 07:05:18;;;;;;;54.30;32.38;;;;;;;-4.25;72.62;100465.02;1657221;85;21643;-73
2022/01/27 07:07:45;;;;;;;49.42;28.85;;;;;;;-4.24;72.58;100464.17;1657952;86;21789;-73
2022/01/27 07:10:11;;;;;;;46.20;26.90;;;;;;;-4.24;72.57;100451.72;1657966;85;20969;-70
2022/01/27 07:12:41;;;;;;;44.38;25.55;;;;;;;-4.23;72.54;100456.84;1656884;85;20995;-70
2022/01/27 07:15:09;;;;;;;47.98;27.02;;;;;;;-4.22;72.49;100456.41;1657121;85;21426;-71
2022/01/27 07:17:37;;;;;;;48.30;27.10;;;;;;;-4.26;72.43;100445.27;1657167;85;20975;-71
2022/01/27 07:20:05;;;;;;;52.20;29.85;;;;;;;-4.29;72.37;100447.92;1657223;85;21830;-71
2022/01/27 07:22:35;;;;;;;53.25;29.55;;;;;;;-4.29;72.37;100444.05;1656743;85;21073;-71
2022/01/27 07:25:02;;;;;;;44.73;27.58;;;;;;;-4.27;72.32;100446.59;1649181;85;21022;-72
2022/01/27 07:27:30;;;;;;;45.35;26.07;;;;;;;-4.20;72.32;100456.78;1660597;85;21003;-70
2022/01/27 07:29:58;;;;;;;47.45;27.50;;;;;;;-4.14;72.26;100450.23;1657285;85;21509;-71
2022/01/27 07:32:24;;;;;;;43.90;27.07;;;;;;;-4.09;72.14;100453.56;1657729;85;21831;-71
2022/01/27 07:34:51;;;;;;;42.75;24.15;;;;;;;-4.04;72.02;100446.61;1648026;85;20986;-71
2022/01/27 07:37:17;;;;;;;43.17;25.23;;;;;;;-3.98;71.90;100447.36;1647424;86;20995;-71
2022/01/27 07:39:43;;;;;;;41.75;24.32;;;;;;;-3.96;71.73;100443.86;1652744;85;21035;-70
2022/01/27 07:42:10;;;;;;;72.10;39.08;;;;;;;-3.91;71.72;100429.16;1651840;85;21054;-70
2022/01/27 07:44:37;;;;;;;57.88;34.33;;;;;;;-3.83;71.71;100426.44;1642490;86;22512;-70
2022/01/27 07:47:03;;;;;;;43.83;24.65;;;;;;;-3.71;71.69;100430.49;1627450;85;20993;-71
2022/01/27 07:49:30;;;;;;;40.52;22.00;;;;;;;-3.64;71.46;100445.83;1685250;85;20975;-71
2022/01/27 07:51:57;;;;;;;36.28;20.95;;;;;;;-3.60;71.17;100451.33;1661371;83;20960;-71
2022/01/27 07:54:23;;;;;;;34.60;21.97;;;;;;;-3.60;70.92;100453.06;1692612;82;21055;-70
2022/01/27 07:56:50;;;;;;;35.90;18.90;;;;;;;-3.60;70.78;100459.07;1694302;84;21727;-72
2022/01/27 07:59:17;;;;;;;36.25;21.05;;;;;;;-3.55;70.75;100452.54;1704647;83;20955;-69
2022/01/27 08:01:43;;;;;;;32.42;20.68;;;;;;;-3.52;70.44;100452.03;1698080;82;20967;-70
2022/01/27 08:04:11;;;;;;;42.00;26.90;;;;;;;-3.53;70.18;100459.37;1699604;82;21007;-71
2022/01/27 08:06:39;;;;;;;35.80;22.05;;;;;;;-3.55;70.01;100446.09;1702657;82;21468;-71
2022/01/27 08:09:06;;;;;;;36.42;23.05;;;;;;;-3.56;69.92;100439.23;1700057;82;21769;-71
2022/01/27 08:11:33;;;;;;;34.95;19.65;;;;;;;-3.56;69.80;100437.50;1696083;83;21004;-71
2022/01/27 08:13:59;;;;;;;34.18;20.92;;;;;;;-3.53;69.74;100437.86;1676438;83;20983;-75
2022/01/27 08:16:26;;;;;;;31.82;19.32;;;;;;;-3.52;69.59;100430.08;1672796;83;21469;-73
2022/01/27 08:18:52;;;;;;;35.83;21.15;;;;;;;-3.49;69.52;100429.16;1692237;83;21470;-71
2022/01/27 08:21:19;;;;;;;34.03;21.17;;;;;;;-3.47;69.37;100428.27;1698016;82;22483;-72
2022/01/27 08:23:45;;;;;;;37.78;21.70;;;;;;;-3.45;69.11;100433.39;1696856;82;21398;-71
2022/01/27 08:26:24;;;;;;;34.25;21.00;;;;;;;-3.44;68.89;100438.12;1690348;82;21451;-72
2022/01/27 08:28:50;;;;;;;36.03;22.00;;;;;;;-3.44;68.80;100433.80;1699343;82;20999;-72
2022/01/27 08:31:15;;;;;;;36.35;21.40;;;;;;;-3.41;68.62;100427.27;1697071;82;21157;-73
2022/01/27 08:33:42;;;;;;;35.40;22.48;;;;;;;-3.39;68.57;100437.56;1687985;83;21715;-72
2022/01/27 08:36:09;;;;;;;39.75;23.12;;;;;;;-3.36;68.53;100435.78;1706761;82;20975;-74
2022/01/27 08:38:37;;;;;;;39.88;23.27;;;;;;;-3.32;68.40;100433.53;1706505;83;21066;-71
2022/01/27 08:41:04;;;;;;;42.40;25.02;;;;;;;-3.28;68.39;100425.26;1691504;83;20975;-71
2022/01/27 08:43:30;;;;;;;37.38;23.25;;;;;;;-3.21;68.35;100416.50;1686816;84;20996;-72
2022/01/27 08:45:59;;;;;;;39.95;24.63;;;;;;;-3.17;68.16;100416.86;1689609;83;21795;-71
2022/01/27 08:48:27;;;;;;;42.48;26.42;;;;;;;-3.10;68.15;100417.55;1693680;82;20964;-72
2022/01/27 08:50:59;;;;;;;46.37;28.27;;;;;;;-3.01;68.14;100416.89;1694349;83;21450;-72
2022/01/27 08:53:22;;;;;;;42.88;26.93;;;;;;;-2.89;67.97;100414.48;1685131;83;21003;-71
2022/01/27 08:55:49;;;;;;;50.65;32.08;;;;;;;-2.83;67.72;100417.34;1685120;85;21086;-72
2022/01/27 08:58:16;;;;;;;44.38;26.35;;;;;;;-2.78;67.50;100417.66;1695383;82;21799;-71
2022/01/27 09:00:42;;;;;;;45.88;27.65;;;;;;;-2.73;67.31;100417.53;1688509;84;20971;-71
2022/01/27 09:03:09;;;;;;;41.08;25.37;;;;;;;-2.69;67.27;100414.01;1694725;83;21027;-72
2022/01/27 09:05:36;;;;;;;41.08;26.55;;;;;;;-2.61;67.29;100412.94;1667211;83;20968;-72
2022/01/27 09:08:02;;;;;;;38.38;23.12;;;;;;;-2.53;67.08;100407.55;1714197;83;21055;-73
2022/01/27 09:10:32;;;;;;;39.55;23.73;;;;;;;-2.48;66.78;100401.83;1714608;82;22439;-72
2022/01/27 09:13:01;;;;;;;40.75;23.85;;;;;;;-2.43;66.63;100401.25;1710146;82;20968;-72
2022/01/27 09:15:28;;;;;;;35.05;21.60;;;;;;;-2.36;66.49;100404.09;1713726;82;21244;-71
2022/01/27 09:17:58;;;;;;;36.23;20.68;;;;;;;-2.32;65.97;100400.97;1714243;82;21063;-72
2022/01/27 09:20:25;;;;;;;35.20;20.88;;;;;;;-2.31;65.66;100405.28;1714645;82;20987;-72
2022/01/27 09:22:54;;;;;;;35.78;20.15;;;;;;;-2.32;65.40;100399.26;1715106;81;21814;-72
2022/01/27 09:25:25;;;;;;;33.53;19.48;;;;;;;-2.31;65.34;100393.64;1714537;82;21490;-73
2022/01/27 09:27:49;;;;;;;33.13;19.65;;;;;;;-2.28;65.12;100389.66;1713996;82;21467;-72
2022/01/27 09:30:18;;;;;;;29.15;18.32;;;;;;;-2.24;64.86;100391.72;1714688;82;20964;-72
2022/01/27 09:32:46;;;;;;;30.25;18.37;;;;;;;-2.21;64.73;100382.16;1714671;82;21209;-73
2022/01/27 09:35:14;;;;;;;33.98;17.80;;;;;;;-2.16;64.68;100369.08;1714106;81;22618;-72
2022/01/27 09:37:41;;;;;;;30.95;17.65;;;;;;;-2.13;64.26;100372.41;1713946;82;20996;-73
2022/01/27 09:40:08;;;;;;;26.27;15.40;;;;;;;-2.11;64.10;100372.41;1713834;82;20996;-73
2022/01/27 09:42:37;;;;;;;23.95;14.87;;;;;;;-2.07;63.88;100374.00;1715286;83;20972;-73
2022/01/27 09:45:07;;;;;;;24.10;14.25;;;;;;;-2.07;63.59;100369.67;1715815;83;21640;-72
2022/01/27 09:47:39;;;;;;;23.18;14.68;;;;;;;-2.02;63.32;100368.27;1711019;82;21797;-71
2022/01/27 09:50:27;;;;;;;24.75;15.32;;;;;;;-2.03;62.80;100362.24;1714689;82;21020;-72
2022/01/27 09:52:49;;;;;;;24.75;14.05;;;;;;;-2.03;62.71;100354.89;1712704;81;21439;-72
2022/01/27 09:55:16;;;;;;;24.90;14.33;;;;;;;-2.03;62.41;100361.36;1716460;81;21052;-72
2022/01/27 09:57:46;;;;;;;24.10;14.63;;;;;;;-2.05;62.19;100360.56;1713632;82;21475;-72
2022/01/27 10:00:15;;;;;;;26.35;15.72;;;;;;;-2.04;62.24;100361.81;1711617;82;21836;-73
2022/01/27 10:03:03;;;;;;;22.00;13.68;;;;;;;-1.99;62.29;100359.11;1716391;82;20973;-73
2022/01/27 10:05:30;;;;;;;22.90;13.20;;;;;;;-1.92;62.10;100352.87;1714583;81;21493;-73
2022/01/27 10:08:03;;;;;;;19.23;12.13;;;;;;;-1.86;61.97;100356.56;1719078;83;21011;-73
2022/01/27 10:10:45;;;;;;;21.17;11.63;;;;;;;-1.85;61.93;100350.48;1711110;83;21024;-73
2022/01/27 10:13:33;;;;;;;19.07;11.75;;;;;;;-1.80;61.31;100342.61;1714277;82;22440;-73
2022/01/27 10:16:01;;;;;;;32.63;18.27;;;;;;;-1.81;61.15;100326.67;1657858;85;21008;-73
2022/01/27 10:18:35;;;;;;;28.67;16.57;;;;;;;-1.78;60.93;100328.72;1699229;82;20969;-72
2022/01/27 10:21:04;;;;;;;25.68;14.78;;;;;;;-1.76;60.89;100319.61;1713489;81;21431;-73
2022/01/27 10:23:36;;;;;;;24.10;11.80;;;;;;;-1.74;60.71;100318.69;1712306;82;21028;-73
2022/01/27 10:26:14;;;;;;;19.67;11.03;;;;;;;-1.69;60.49;100318.98;1710811;83;21811;-75
2022/01/27 10:28:48;;;;;;;18.55;10.58;;;;;;;-1.64;60.26;100313.20;1714439;83;21649;-72
2022/01/27 10:31:20;;;;;;;23.98;11.60;;;;;;;-1.61;60.17;100316.56;1721201;83;27162;-73
2022/01/27 10:34:03;;;;;;;17.80;10.18;;;;;;;-1.58;60.22;100316.91;1714757;82;20991;-70
2022/01/27 10:36:36;;;;;;;15.28;9.33;;;;;;;-1.55;59.84;100310.33;1710896;82;21035;-72
2022/01/27 10:39:22;;;;;;;16.32;9.73;;;;;;;-1.51;59.78;100299.84;1712509;82;21798;-72
2022/01/27 10:42:07;;;;;;;15.55;9.30;;;;;;;-1.49;59.51;100307.11;1710581;83;21562;-72
2022/01/27 10:44:55;;;;;;;16.93;9.45;;;;;;;-1.47;59.41;100301.88;1713877;83;20991;-72
2022/01/27 10:47:21;;;;;;;16.87;8.95;;;;;;;-1.48;59.23;100306.67;1713727;82;20972;-71
2022/01/27 10:49:52;;;;;;;15.23;8.75;;;;;;;-1.45;59.13;100303.97;1710096;82;21012;-71
2022/01/27 10:52:48;;;;;;;16.17;8.35;;;;;;;-1.47;58.98;100291.52;1694809;82;22481;-73
2022/01/27 10:55:07;;;;;;;15.70;9.70;;;;;;;-1.48;59.02;100291.97;1707720;82;21016;-74
2022/01/27 10:57:34;;;;;;;14.60;7.40;;;;;;;-1.44;59.25;100287.56;1714540;82;21534;-71
2022/01/27 11:00:14;;;;;;;15.60;9.30;;;;;;;-1.41;59.38;100280.98;1714258;82;20992;-71
2022/01/27 11:02:50;;;;;;;14.07;9.53;;;;;;;-1.38;59.36;100273.09;1713543;83;21019;-70
2022/01/27 11:05:22;;;;;;;13.55;8.60;;;;;;;-1.38;59.00;100269.66;1687752;82;21829;-71
2022/01/27 11:07:50;;;;;;;15.98;8.55;;;;;;;-1.38;58.99;100266.63;1712394;82;21463;-70
2022/01/27 11:10:18;;;;;;;16.52;9.73;;;;;;;-1.38;59.11;100264.03;1714375;83;20968;-70
2022/01/27 11:12:46;;;;;;;17.12;9.73;;;;;;;-1.38;59.32;100264.03;1715566;82;21055;-74
2022/01/27 11:15:16;;;;;;;16.00;10.25;;;;;;;-1.37;59.31;100257.95;1714219;82;20984;-73
2022/01/27 11:17:45;;;;;;;12.55;8.80;;;;;;;-1.34;59.48;100254.44;1710607;82;21853;-73
2022/01/27 11:20:33;;;;;;;14.53;8.93;;;;;;;-1.33;58.88;100253.53;1714134;82;21460;-71
2022/01/27 11:23:24;;;;;;;15.13;8.80;;;;;;;-1.33;58.96;100253.08;1713154;83;20980;-71
2022/01/27 11:28:02;;;;;;;13.35;8.05;;;;;;;-1.28;59.05;100252.92;1714187;82;21510;-70
2022/01/27 11:30:51;;;;;;;12.28;7.42;;;;;;;-1.26;59.22;100250.67;1692468;83;21855;-73
2022/01/27 11:33:18;;;;;;;13.22;8.28;;;;;;;-1.25;59.00;100256.28;1712004;82;20972;-72
2022/01/27 11:35:44;;;;;;;12.05;7.80;;;;;;;-1.28;59.07;100247.28;1711678;82;20972;-71
2022/01/27 11:38:11;;;;;;;10.93;7.30;;;;;;;-1.27;59.45;100247.68;1715112;82;21024;-73
2022/01/27 11:40:46;;;;;;;14.33;7.80;;;;;;;-1.24;59.57;100243.72;1713390;81;21024;-72
2022/01/27 11:43:17;;;;;;;13.83;7.80;;;;;;;-1.21;59.39;100240.17;1714047;83;21860;-69
2022/01/27 11:45:48;;;;;;;12.03;7.53;;;;;;;-1.20;59.50;100233.63;1718214;82;20976;-70
2022/01/27 11:48:23;;;;;;;14.00;8.40;;;;;;;-1.19;59.22;100232.73;1713275;82;21051;-73
2022/01/27 11:51:13;;;;;;;11.68;7.03;;;;;;;-1.18;59.30;100227.94;1689485;81;20976;-76
2022/01/27 11:53:44;;;;;;;13.13;7.75;;;;;;;-1.16;59.06;100228.77;1716870;81;20991;-75